createdAt,value
2022-10-08T00:01:10.234Z,36.45
2022-10-08T00:03:39.741Z,33.75
2022-10-08T00:06:16.388Z,34.50
2022-10-08T00:08:49.411Z,35.08
2022-10-08T00:11:20.079Z,34.92
2022-10-08T00:13:48.620Z,33.40
2022-10-08T00:16:37.829Z,31.70
2022-10-08T00:19:14.070Z,28.38
2022-10-08T00:21:43.893Z,32.28
2022-10-08T00:24:16.829Z,33.50
2022-10-08T00:26:44.625Z,31.92
2022-10-08T00:29:14.332Z,31.33
2022-10-08T00:31:44.510Z,32.42
2022-10-08T00:34:15.977Z,32.08
2022-10-08T00:36:42.829Z,32.78
2022-10-08T00:39:15.878Z,32.40
2022-10-08T00:41:45.314Z,29.95
2022-10-08T00:44:50.848Z,29.25
2022-10-08T00:47:32.933Z,28.83
2022-10-08T00:50:01.940Z,30.02
2022-10-08T00:52:35.395Z,31.02
2022-10-08T00:55:06.785Z,29.60
2022-10-08T00:57:35.987Z,29.65
2022-10-08T01:00:12.678Z,30.60
2022-10-08T01:02:39.622Z,30.83
2022-10-08T01:05:07.677Z,28.75
2022-10-08T01:07:45.055Z,29.40
2022-10-08T01:10:17.822Z,29.42
2022-10-08T01:12:47.962Z,30.33
2022-10-08T01:15:51.135Z,30.70
2022-10-08T01:18:27.954Z,28.02
2022-10-08T01:21:15.824Z,29.17
2022-10-08T01:23:59.531Z,29.40
2022-10-08T01:26:48.191Z,29.15
2022-10-08T01:29:16.582Z,30.00
2022-10-08T01:31:51.786Z,27.08
2022-10-08T01:34:31.975Z,28.30
2022-10-08T01:37:01.262Z,24.48
2022-10-08T01:39:33.005Z,24.25
2022-10-08T01:42:03.160Z,26.98
2022-10-08T01:44:36.043Z,25.90
2022-10-08T01:47:07.710Z,26.27
2022-10-08T01:49:43.369Z,26.13
2022-10-08T01:52:20.420Z,26.73
2022-10-08T01:54:49.534Z,25.88
2022-10-08T01:57:16.730Z,26.67
2022-10-08T01:59:54.868Z,25.95
2022-10-08T02:02:24.795Z,24.17
2022-10-08T02:04:54.460Z,24.88
2022-10-08T02:07:43.004Z,22.95
2022-10-08T02:10:14.078Z,25.90
2022-10-08T02:12:42.168Z,26.17
2022-10-08T02:15:33.866Z,26.55
2022-10-08T02:18:15.988Z,25.98
2022-10-08T02:20:52.094Z,27.33
2022-10-08T02:23:37.746Z,26.20
2022-10-08T02:26:08.607Z,27.33
2022-10-08T02:28:49.494Z,26.58
2022-10-08T02:31:40.854Z,26.00
2022-10-08T02:34:15.010Z,25.92
2022-10-08T02:36:45.690Z,25.70
2022-10-08T02:39:15.719Z,25.13
2022-10-08T02:41:52.339Z,25.88
2022-10-08T02:44:26.572Z,26.05
2022-10-08T02:46:57.926Z,25.90
2022-10-08T02:49:33.737Z,20.38
2022-10-08T02:52:02.797Z,24.73
2022-10-08T02:54:35.271Z,25.05
2022-10-08T02:57:11.616Z,24.67
2022-10-08T02:59:38.539Z,24.70
2022-10-08T03:02:06.294Z,23.50
2022-10-08T03:04:45.853Z,22.50
2022-10-08T03:07:15.127Z,24.33
2022-10-08T03:09:45.752Z,24.52
2022-10-08T03:12:12.895Z,21.27
2022-10-08T03:14:43.709Z,22.13
2022-10-08T03:17:14.276Z,24.30
2022-10-08T03:19:41.160Z,24.10
2022-10-08T03:22:08.271Z,23.83
2022-10-08T03:24:36.146Z,23.83
2022-10-08T03:27:03.931Z,24.10
2022-10-08T03:29:30.889Z,24.58
2022-10-08T03:31:57.694Z,24.40
2022-10-08T03:34:25.551Z,24.85
2022-10-08T03:36:52.376Z,25.55
2022-10-08T03:39:19.333Z,25.75
2022-10-08T03:41:46.146Z,25.02
2022-10-08T03:44:12.935Z,25.00
2022-10-08T03:46:40.626Z,23.77
2022-10-08T03:49:07.461Z,24.58
2022-10-08T03:51:34.266Z,23.10
2022-10-08T03:54:01.068Z,22.45
2022-10-08T03:56:27.886Z,22.65
2022-10-08T03:58:56.978Z,22.60
2022-10-08T04:01:25.393Z,22.83
2022-10-08T04:03:52.790Z,22.67
2022-10-08T04:06:20.432Z,22.02
2022-10-08T04:08:47.280Z,22.20
2022-10-08T04:11:16.263Z,19.85
2022-10-08T04:13:43.921Z,21.50
2022-10-08T04:16:14.132Z,21.65
2022-10-08T04:18:41.934Z,20.63
2022-10-08T04:21:12.074Z,20.63
2022-10-08T04:23:40.810Z,19.40
2022-10-08T04:26:09.106Z,21.63
2022-10-08T04:28:38.837Z,21.10
2022-10-08T04:31:12.603Z,20.83
2022-10-08T04:33:39.524Z,22.10
2022-10-08T04:36:14.854Z,22.98
2022-10-08T04:38:45.587Z,22.70
2022-10-08T04:41:15.334Z,22.63
2022-10-08T04:43:43.957Z,22.13
2022-10-08T04:46:13.238Z,22.08
2022-10-08T04:48:40.603Z,22.35
2022-10-08T04:51:10.743Z,22.13
2022-10-08T04:53:38.208Z,23.90
2022-10-08T04:56:20.766Z,26.02
2022-10-08T04:58:48.073Z,22.98
2022-10-08T05:01:17.722Z,25.27
2022-10-08T05:03:48.373Z,24.85
2022-10-08T05:06:20.845Z,22.02
2022-10-08T05:08:48.553Z,24.10
2022-10-08T05:11:16.348Z,23.67
2022-10-08T05:13:43.927Z,23.42
2022-10-08T05:16:13.858Z,23.48
2022-10-08T05:18:42.310Z,22.75
2022-10-08T05:21:12.275Z,24.80
2022-10-08T05:23:40.210Z,24.02
2022-10-08T05:26:19.397Z,25.95
2022-10-08T05:28:47.681Z,25.00
2022-10-08T05:31:18.041Z,25.75
2022-10-08T05:33:45.220Z,23.90
2022-10-08T05:36:18.337Z,23.00
2022-10-08T05:38:45.296Z,21.98
2022-10-08T05:41:17.183Z,21.08
2022-10-08T05:43:45.242Z,21.67
2022-10-08T05:46:12.692Z,22.05
2022-10-08T05:48:39.967Z,19.85
2022-10-08T05:51:09.124Z,21.50
2022-10-08T05:53:38.318Z,19.92
2022-10-08T05:56:07.584Z,18.92
2022-10-08T05:58:36.314Z,17.20
2022-10-08T06:01:06.561Z,17.67
2022-10-08T06:03:33.541Z,17.30
2022-10-08T06:06:06.425Z,16.40
2022-10-08T06:08:33.919Z,16.25
2022-10-08T06:11:01.135Z,16.08
2022-10-08T06:13:28.235Z,14.98
2022-10-08T06:16:06.817Z,14.32
2022-10-08T06:18:36.478Z,14.45
2022-10-08T06:21:24.438Z,14.40
2022-10-08T06:23:57.760Z,15.80
2022-10-08T06:26:30.557Z,15.23
2022-10-08T06:29:01.511Z,15.90
2022-10-08T06:31:28.540Z,15.45
2022-10-08T06:33:57.040Z,14.80
2022-10-08T06:36:28.531Z,14.50
2022-10-08T06:39:00.568Z,15.35
2022-10-08T06:41:30.335Z,15.00
2022-10-08T06:43:57.237Z,14.98
2022-10-08T06:46:24.128Z,14.07
2022-10-08T06:48:50.953Z,14.27
2022-10-08T06:51:19.027Z,12.38
2022-10-08T06:53:52.594Z,11.85
2022-10-08T06:56:19.442Z,10.60
2022-10-08T06:58:47.565Z,9.63
2022-10-08T07:01:20.083Z,9.23
2022-10-08T07:04:06.844Z,11.90
2022-10-08T07:06:33.861Z,14.13
2022-10-08T07:09:01.982Z,13.63
2022-10-08T07:11:31.331Z,13.63
2022-10-08T07:13:58.417Z,14.52
2022-10-08T07:16:27.036Z,14.85
2022-10-08T07:18:56.452Z,14.63
2022-10-08T07:21:23.352Z,14.73
2022-10-08T07:23:50.859Z,14.20
2022-10-08T07:26:21.029Z,13.18
2022-10-08T07:28:56.907Z,12.38
2022-10-08T07:31:28.080Z,11.02
2022-10-08T07:33:56.221Z,10.82
2022-10-08T07:36:25.088Z,9.30
2022-10-08T07:39:04.942Z,10.07
2022-10-08T07:41:32.820Z,9.63
2022-10-08T07:44:04.289Z,9.75
2022-10-08T07:46:36.835Z,9.98
2022-10-08T07:49:04.861Z,8.30
2022-10-08T07:51:33.764Z,8.73
2022-10-08T07:54:02.935Z,8.80
2022-10-08T07:56:31.248Z,7.88
2022-10-08T07:58:59.041Z,8.07
2022-10-08T08:01:30.494Z,8.27
2022-10-08T08:04:06.263Z,8.07
2022-10-08T08:06:37.692Z,6.47
2022-10-08T08:09:04.463Z,6.43
2022-10-08T08:11:31.530Z,6.93
2022-10-08T08:13:58.430Z,7.72
2022-10-08T08:16:27.423Z,7.70
2022-10-08T08:18:56.562Z,8.15
2022-10-08T08:21:29.027Z,7.38
2022-10-08T08:23:57.759Z,7.30
2022-10-08T08:26:28.815Z,8.27
2022-10-08T08:28:58.841Z,10.35
2022-10-08T08:31:30.828Z,9.27
2022-10-08T08:34:01.755Z,6.93
2022-10-08T08:36:31.671Z,7.45
2022-10-08T08:38:59.325Z,6.85
2022-10-08T08:41:36.043Z,6.55
2022-10-08T08:44:10.577Z,7.13
2022-10-08T08:46:42.518Z,6.15
2022-10-08T08:49:23.197Z,5.13
2022-10-08T08:51:50.081Z,5.55
2022-10-08T08:54:16.981Z,5.55
2022-10-08T08:56:44.200Z,6.15
2022-10-08T08:59:34.318Z,6.68
2022-10-08T09:02:06.033Z,6.10
2022-10-08T09:04:45.093Z,6.53
2022-10-08T09:07:17.243Z,5.75
2022-10-08T09:09:48.613Z,5.00
2022-10-08T09:12:21.045Z,5.40
2022-10-08T09:14:53.101Z,4.63
2022-10-08T09:17:27.929Z,5.70
2022-10-08T09:19:54.821Z,4.90
2022-10-08T09:22:31.565Z,4.60
2022-10-08T09:25:06.576Z,4.00
2022-10-08T09:27:43.529Z,4.57
2022-10-08T09:30:29.357Z,5.03
2022-10-08T09:33:16.519Z,4.80
2022-10-08T09:35:49.334Z,4.45
2022-10-08T09:38:26.337Z,4.65
2022-10-08T09:41:07.041Z,4.18
2022-10-08T09:43:35.478Z,4.85
2022-10-08T09:46:12.066Z,3.67
2022-10-08T09:48:39.749Z,3.67
2022-10-08T09:51:15.412Z,3.85
2022-10-08T09:53:42.285Z,3.63
2022-10-08T09:56:10.917Z,3.50
2022-10-08T09:58:53.943Z,3.47
2022-10-08T10:01:21.500Z,3.63
2022-10-08T10:03:55.688Z,4.20
2022-10-08T10:06:46.130Z,4.43
2022-10-08T10:09:41.091Z,4.60
2022-10-08T10:12:10.792Z,4.40
2022-10-08T10:14:45.286Z,4.10
2022-10-08T10:17:34.597Z,3.90
2022-10-08T10:20:43.922Z,4.45
2022-10-08T10:23:39.372Z,4.10
2022-10-08T10:26:15.550Z,3.35
2022-10-08T10:28:54.444Z,3.38
2022-10-08T10:31:45.391Z,4.10
2022-10-08T10:34:25.139Z,4.00
2022-10-08T10:36:59.095Z,3.97
2022-10-08T10:39:44.634Z,3.83
2022-10-08T10:42:20.713Z,3.78
2022-10-08T10:44:56.450Z,4.15
2022-10-08T10:47:31.005Z,4.13
2022-10-08T10:50:01.367Z,4.20
2022-10-08T10:53:06.838Z,4.43
2022-10-08T10:55:41.195Z,4.97
2022-10-08T10:58:21.961Z,4.28
2022-10-08T11:01:04.472Z,4.65
2022-10-08T11:03:57.441Z,4.47
2022-10-08T11:06:45.942Z,4.47
2022-10-08T11:09:12.818Z,4.53
2022-10-08T11:11:52.313Z,4.35
2022-10-08T11:14:44.606Z,4.60
2022-10-08T11:17:37.228Z,4.07
2022-10-08T11:20:22.439Z,4.60
2022-10-08T11:23:20.504Z,5.07
2022-10-08T11:26:22.402Z,5.50
2022-10-08T11:28:59.896Z,5.20
2022-10-08T11:31:47.127Z,5.10
2022-10-08T11:34:20.092Z,5.60
2022-10-08T11:36:53.023Z,4.95
2022-10-08T11:39:21.097Z,5.38
2022-10-08T11:41:55.253Z,4.95
2022-10-08T11:44:22.508Z,5.55
2022-10-08T11:46:49.492Z,5.20
2022-10-08T11:49:16.278Z,5.38
2022-10-08T11:51:45.739Z,5.32
2022-10-08T11:54:38.602Z,5.55
2022-10-08T11:57:16.434Z,5.15
2022-10-08T11:59:45.282Z,5.03
2022-10-08T12:02:33.726Z,5.30
2022-10-08T12:05:18.879Z,6.43
2022-10-08T12:07:57.554Z,5.53
2022-10-08T12:10:29.532Z,5.85
2022-10-08T12:12:59.892Z,5.82
2022-10-08T12:15:27.834Z,6.18
2022-10-08T12:17:56.101Z,7.32
2022-10-08T12:20:32.834Z,7.90
2022-10-08T12:23:10.985Z,9.07
2022-10-08T12:25:49.016Z,7.43
2022-10-08T12:28:21.943Z,8.55
2022-10-08T12:30:54.486Z,6.85
2022-10-08T12:33:22.502Z,8.00
2022-10-08T12:36:01.282Z,9.60
2022-10-08T12:38:51.241Z,8.85
2022-10-08T12:41:28.604Z,9.23
2022-10-08T12:44:08.524Z,8.70
2022-10-08T12:46:50.892Z,9.98
2022-10-08T12:49:58.321Z,10.25
2022-10-08T12:52:26.091Z,10.00
2022-10-08T12:54:56.380Z,11.35
2022-10-08T12:57:38.153Z,10.68
2022-10-08T13:00:11.391Z,10.60
2022-10-08T13:02:41.828Z,10.55
2022-10-08T13:05:32.050Z,11.63
2022-10-08T13:08:17.083Z,11.15
2022-10-08T13:10:44.026Z,11.20
2022-10-08T13:13:50.346Z,11.63
2022-10-08T13:16:23.047Z,11.30
2022-10-08T13:18:52.904Z,11.95
2022-10-08T13:21:24.535Z,12.50
2022-10-08T13:23:52.148Z,12.15
2022-10-08T13:26:52.189Z,12.35
2022-10-08T13:29:36.142Z,12.93
2022-10-08T13:32:15.702Z,12.40
2022-10-08T13:34:46.432Z,12.15
2022-10-08T13:37:21.257Z,13.00
2022-10-08T13:39:54.250Z,13.50
2022-10-08T13:42:24.798Z,12.05
2022-10-08T13:44:52.125Z,11.98
2022-10-08T13:47:21.841Z,12.23
2022-10-08T13:49:49.207Z,11.93
2022-10-08T13:52:21.576Z,19.75
2022-10-08T13:54:51.549Z,30.08
2022-10-08T13:57:18.398Z,29.35
2022-10-08T13:59:45.374Z,31.05
2022-10-08T14:02:14.350Z,27.45
2022-10-08T14:04:41.361Z,27.10
2022-10-08T14:07:27.306Z,24.70
2022-10-08T14:09:57.628Z,24.30
2022-10-08T14:12:27.017Z,28.05
2022-10-08T14:14:53.938Z,27.38
2022-10-08T14:17:21.152Z,25.52
2022-10-08T14:19:48.997Z,23.70
2022-10-08T14:22:16.697Z,23.58
2022-10-08T14:24:44.058Z,22.88
2022-10-08T14:27:10.866Z,20.17
2022-10-08T14:29:37.934Z,23.13
2022-10-08T14:32:05.755Z,20.52
2022-10-08T14:34:32.579Z,17.88
2022-10-08T14:36:59.672Z,18.38
2022-10-08T14:39:26.869Z,18.60
2022-10-08T14:41:54.181Z,17.35
2022-10-08T14:44:22.642Z,16.48
2022-10-08T14:46:52.837Z,15.23
2022-10-08T14:49:20.747Z,13.68
2022-10-08T14:51:48.484Z,11.82
2022-10-08T14:54:15.738Z,11.20
2022-10-08T14:56:43.153Z,11.45
2022-10-08T14:59:11.309Z,12.40
2022-10-08T15:01:38.830Z,11.77
2022-10-08T15:04:06.595Z,12.57
2022-10-08T15:06:34.164Z,11.18
2022-10-08T15:09:01.086Z,10.73
2022-10-08T15:11:27.987Z,10.93
2022-10-08T15:13:55.605Z,10.40
2022-10-08T15:16:22.876Z,11.43
2022-10-08T15:18:49.938Z,10.10
2022-10-08T15:21:16.778Z,10.88
2022-10-08T15:23:43.613Z,11.35
2022-10-08T15:26:16.716Z,10.48
2022-10-08T15:28:46.116Z,11.07
2022-10-08T15:31:18.385Z,10.32
2022-10-08T15:33:48.055Z,11.60
2022-10-08T15:36:18.939Z,12.70
2022-10-08T15:38:47.086Z,14.20
2022-10-08T15:41:19.764Z,13.95
2022-10-08T15:43:46.915Z,14.65
2022-10-08T15:46:18.150Z,13.00
2022-10-08T15:48:56.519Z,13.07
2022-10-08T15:51:24.759Z,13.38
2022-10-08T15:53:51.643Z,13.55
2022-10-08T15:56:18.457Z,14.68
2022-10-08T15:58:50.736Z,14.10
2022-10-08T16:01:21.085Z,14.77
2022-10-08T16:03:50.334Z,14.77
2022-10-08T16:06:20.124Z,13.27
2022-10-08T16:08:47.320Z,14.63
2022-10-08T16:11:19.982Z,14.35
2022-10-08T16:13:50.055Z,13.70
2022-10-08T16:16:17.975Z,13.55
2022-10-08T16:18:47.040Z,16.20
2022-10-08T16:21:14.241Z,17.08
2022-10-08T16:23:41.140Z,17.42
2022-10-08T16:26:11.107Z,17.13
2022-10-08T16:28:40.740Z,17.13
2022-10-08T16:31:08.669Z,16.08
2022-10-08T16:33:35.604Z,16.08
2022-10-08T16:36:05.415Z,16.23
2022-10-08T16:38:38.674Z,16.92
2022-10-08T16:41:12.844Z,16.73
2022-10-08T16:43:39.877Z,15.93
2022-10-08T16:46:14.332Z,17.45
2022-10-08T16:48:41.275Z,16.08
2022-10-08T16:51:08.150Z,15.70
2022-10-08T16:53:35.050Z,17.27
2022-10-08T16:56:04.085Z,16.77
2022-10-08T16:58:30.936Z,16.85
2022-10-08T17:00:57.926Z,18.00
2022-10-08T17:03:24.830Z,18.92
2022-10-08T17:05:51.620Z,15.80
2022-10-08T17:08:18.435Z,18.63
2022-10-08T17:10:45.336Z,16.23
2022-10-08T17:13:12.154Z,16.40
2022-10-08T17:15:39.089Z,17.00
2022-10-08T17:18:06.142Z,16.55
2022-10-08T17:20:33.092Z,15.27
2022-10-08T17:22:59.969Z,16.02
2022-10-08T17:25:26.976Z,16.02
2022-10-08T17:27:53.727Z,15.65
2022-10-08T17:30:20.574Z,16.30
2022-10-08T17:32:47.630Z,15.75
2022-10-08T17:35:14.821Z,15.25
2022-10-08T17:37:41.800Z,16.20
2022-10-08T17:40:09.210Z,15.80
2022-10-08T17:42:36.026Z,15.63
2022-10-08T17:45:03.005Z,15.63
2022-10-08T17:47:29.832Z,14.30
2022-10-08T17:49:56.674Z,15.32
2022-10-08T17:52:23.467Z,15.60
2022-10-08T17:54:50.300Z,14.20
2022-10-08T17:57:17.135Z,14.70
2022-10-08T17:59:43.904Z,15.88
2022-10-08T18:02:10.902Z,16.25
2022-10-08T18:04:37.937Z,16.65
2022-10-08T18:07:04.909Z,15.25
2022-10-08T18:09:32.557Z,15.20
2022-10-08T18:11:59.383Z,17.38
2022-10-08T18:14:26.175Z,17.95
2022-10-08T18:16:53.262Z,17.00
2022-10-08T18:19:20.343Z,16.00
2022-10-08T18:21:47.241Z,16.25
2022-10-08T18:24:15.142Z,15.50
2022-10-08T18:26:42.188Z,15.95
2022-10-08T18:29:11.998Z,15.13
2022-10-08T18:31:40.952Z,14.32
2022-10-08T18:34:11.727Z,15.40
2022-10-08T18:36:39.195Z,14.90
2022-10-08T18:39:10.117Z,16.40
2022-10-08T18:41:41.174Z,16.60
2022-10-08T18:44:12.386Z,16.35
2022-10-08T18:46:42.281Z,15.43
2022-10-08T18:49:12.190Z,15.98
2022-10-08T18:51:39.614Z,15.30
2022-10-08T18:54:07.814Z,14.73
2022-10-08T18:56:38.596Z,15.70
2022-10-08T18:59:08.590Z,15.73
2022-10-08T19:01:38.413Z,15.88
2022-10-08T19:04:08.964Z,14.60
2022-10-08T19:06:38.351Z,16.45
2022-10-08T19:09:06.783Z,17.02
2022-10-08T19:11:44.465Z,16.88
2022-10-08T19:14:14.909Z,15.18
2022-10-08T19:16:42.197Z,14.70
2022-10-08T19:19:20.933Z,15.10
2022-10-08T19:21:48.574Z,14.82
2022-10-08T19:24:21.727Z,15.32
2022-10-08T19:26:49.177Z,15.02
2022-10-08T19:29:36.003Z,16.73
2022-10-08T19:32:03.152Z,16.70
2022-10-08T19:34:30.275Z,17.20
2022-10-08T19:36:57.205Z,16.80
2022-10-08T19:39:27.527Z,18.20
2022-10-08T19:41:54.649Z,16.23
2022-10-08T19:44:22.783Z,17.02
2022-10-08T19:46:49.781Z,15.77
2022-10-08T19:49:20.263Z,17.23
2022-10-08T19:51:47.359Z,15.88
2022-10-08T19:54:15.729Z,17.23
2022-10-08T19:56:42.595Z,16.05
2022-10-08T19:59:10.670Z,16.88
2022-10-08T20:01:39.226Z,16.98
2022-10-08T20:04:07.896Z,15.75
2022-10-08T20:06:39.089Z,15.98
2022-10-08T20:09:07.283Z,15.68
2022-10-08T20:11:34.359Z,15.10
2022-10-08T20:14:01.620Z,16.10
2022-10-08T20:16:32.101Z,17.15
2022-10-08T20:19:01.517Z,17.77
2022-10-08T20:21:30.711Z,17.92
2022-10-08T20:23:57.700Z,17.50
2022-10-08T20:26:30.061Z,18.85
2022-10-08T20:28:59.403Z,18.25
2022-10-08T20:31:32.189Z,20.48
2022-10-08T20:34:01.553Z,17.08
2022-10-08T20:36:28.758Z,16.60
2022-10-08T20:38:56.363Z,18.70
2022-10-08T20:41:28.100Z,17.95
2022-10-08T20:44:00.525Z,19.92
2022-10-08T20:46:27.773Z,18.95
2022-10-08T20:48:54.857Z,19.48
2022-10-08T20:51:23.884Z,18.65
2022-10-08T20:53:52.862Z,18.48
2022-10-08T20:56:21.951Z,18.25
2022-10-08T20:58:49.596Z,17.48
2022-10-08T21:01:24.521Z,16.48
2022-10-08T21:03:52.197Z,16.67
2022-10-08T21:06:22.132Z,17.15
2022-10-08T21:08:50.738Z,15.07
2022-10-08T21:11:21.096Z,17.57
2022-10-08T21:13:48.892Z,16.92
2022-10-08T21:16:21.879Z,16.92
2022-10-08T21:18:51.341Z,17.40
2022-10-08T21:21:19.762Z,17.08
2022-10-08T21:23:49.029Z,17.27
2022-10-08T21:26:24.207Z,15.57
2022-10-08T21:28:55.008Z,18.07
2022-10-08T21:31:22.966Z,17.13
2022-10-08T21:33:51.837Z,16.42
2022-10-08T21:36:21.466Z,17.45
2022-10-08T21:38:48.696Z,16.52
2022-10-08T21:41:17.449Z,14.93
2022-10-08T21:43:50.239Z,16.38
2022-10-08T21:46:19.745Z,17.70
2022-10-08T21:48:47.609Z,16.95
2022-10-08T21:51:17.446Z,18.30
2022-10-08T21:53:47.122Z,17.38
2022-10-08T21:56:16.771Z,17.65
2022-10-08T21:58:46.242Z,17.25
2022-10-08T22:01:27.859Z,15.70
2022-10-08T22:03:55.012Z,16.37
2022-10-08T22:06:22.509Z,15.97
2022-10-08T22:08:50.267Z,15.80
2022-10-08T22:11:17.729Z,16.67
2022-10-08T22:13:44.735Z,16.75
2022-10-08T22:16:13.395Z,16.25
2022-10-08T22:18:40.808Z,16.57
2022-10-08T22:21:11.540Z,16.13
2022-10-08T22:23:38.881Z,19.13
2022-10-08T22:26:09.542Z,18.70
2022-10-08T22:28:37.571Z,18.33
2022-10-08T22:31:06.621Z,17.50
2022-10-08T22:33:34.230Z,18.17
2022-10-08T22:36:06.594Z,18.33
2022-10-08T22:38:36.146Z,17.85
2022-10-08T22:41:08.780Z,18.03
2022-10-08T22:43:36.823Z,17.23
2022-10-08T22:46:05.681Z,17.53
2022-10-08T22:48:33.306Z,16.73
2022-10-08T22:51:05.524Z,16.48
2022-10-08T22:53:32.991Z,15.80
2022-10-08T22:55:59.943Z,17.43
2022-10-08T22:58:26.719Z,17.98
2022-10-08T23:01:08.623Z,16.85
2022-10-08T23:03:36.600Z,17.77
2022-10-08T23:06:10.372Z,18.83
2022-10-08T23:08:37.152Z,18.27
2022-10-08T23:11:04.814Z,20.63
2022-10-08T23:13:32.495Z,18.98
2022-10-08T23:16:05.469Z,20.30
2022-10-08T23:18:36.843Z,19.17
2022-10-08T23:21:06.269Z,19.57
2022-10-08T23:23:33.718Z,19.92
2022-10-08T23:26:03.660Z,20.33
2022-10-08T23:28:32.708Z,19.88
2022-10-08T23:31:17.630Z,19.10
2022-10-08T23:33:47.172Z,19.60
2022-10-08T23:36:23.250Z,19.13
2022-10-08T23:38:50.710Z,18.00
2022-10-08T23:41:18.059Z,20.10
2022-10-08T23:43:47.056Z,19.63
2022-10-08T23:46:16.337Z,19.83
2022-10-08T23:48:43.619Z,21.83
2022-10-08T23:51:11.758Z,20.57
2022-10-08T23:53:39.621Z,20.53
2022-10-08T23:56:07.567Z,20.55
2022-10-08T23:58:34.388Z,20.93
